<?xml version="1.0" encoding="UTF-8" standalone="no" ?>
<gpx xmlns="http://www.topografix.com/GPX/1/1" xmlns:xsi="http://www.w3.org/2001/XMLSchema-instance" xsi:schemaLocation="http://www.topografix.com/GPX/1/1 http://www.topografix.com/GPX/1/1/gpx.xsd" version="1.1" creator="VisuGPX - https://www.visugpx.com">
  <metadata>
    <name>Etang d'Appy</name>
    <desc><![CDATA[Etang d'Appy en raquettes le 24/02/18]]></desc>
  </metadata>
  <trk>
    <name><![CDATA[2018-02-24 09:18]]></name>
    <desc><![CDATA[<p>Heure de départ: 02/24/2018 09:18<br/>Heure d'arrivée: 02/24/2018 16:23<br/>Distance: 9 km (07:05)<br/>Temps déplacement: 03:27<br/>Vitesse moyenne: 1,27 km/h<br/>Vitesse moyenne mouv.: 2,59 km/h<br/>Vitesse Max.: 7,36 km/h<br/>Altitude minimale: 944 m<br/>Altitude maximale: 1771 m<br/>Vitesse de montée: 198,4 m/h<br/>Vitesse de descente: -272,2 m/h<br/>Gain d'altitude: 826 m<br/>Perte d'altitude: -797 m<br/>Temps de montée: 04:09<br/>Temps de descente: 02:55<br/></p><hr align="center" width="480" style="height: 2px; width: 517px"/>]]></desc>
    <trkseg>
      <trkpt lat="42.78984" lon="1.73379">
        <ele>946.1</ele>
        <time>2018-02-24T08:18:19Z</time>
      </trkpt>
      <trkpt lat="42.78988" lon="1.73354">
        <ele>945.22</ele>
        <time>2018-02-24T08:33:58Z</time>
      </trkpt>
      <trkpt lat="42.78989" lon="1.73329">
        <ele>945.2</ele>
        <time>2018-02-24T08:34:18Z</time>
      </trkpt>
      <trkpt lat="42.79" lon="1.73309">
        <ele>945.12</ele>
        <time>2018-02-24T08:34:35Z</time>
      </trkpt>
      <trkpt lat="42.79007" lon="1.73287">
        <ele>945.02</ele>
        <time>2018-02-24T08:34:57Z</time>
      </trkpt>
      <trkpt lat="42.79025" lon="1.73294">
        <ele>944.83</ele>
        <time>2018-02-24T08:35:27Z</time>
      </trkpt>
      <trkpt lat="42.79033" lon="1.73317">
        <ele>945.36</ele>
        <time>2018-02-24T08:36:07Z</time>
      </trkpt>
      <trkpt lat="42.79047" lon="1.73333">
        <ele>946.11</ele>
        <time>2018-02-24T08:36:34Z</time>
      </trkpt>
      <trkpt lat="42.79052" lon="1.73357">
        <ele>946.89</ele>
        <time>2018-02-24T08:37:00Z</time>
      </trkpt>
      <trkpt lat="42.7907" lon="1.73364">
        <ele>947.94</ele>
        <time>2018-02-24T08:38:09Z</time>
      </trkpt>
      <trkpt lat="42.79088" lon="1.73358">
        <ele>948.71</ele>
        <time>2018-02-24T08:39:04Z</time>
      </trkpt>
      <trkpt lat="42.7909" lon="1.73333">
        <ele>949.27</ele>
        <time>2018-02-24T08:39:31Z</time>
      </trkpt>
      <trkpt lat="42.79093" lon="1.73308">
        <ele>949.72</ele>
        <time>2018-02-24T08:39:56Z</time>
      </trkpt>
      <trkpt lat="42.79099" lon="1.73285">
        <ele>950.03</ele>
        <time>2018-02-24T08:40:20Z</time>
      </trkpt>
      <trkpt lat="42.79101" lon="1.7326">
        <ele>950.26</ele>
        <time>2018-02-24T08:40:38Z</time>
      </trkpt>
      <trkpt lat="42.7911" lon="1.73237">
        <ele>950.63</ele>
        <time>2018-02-24T08:41:00Z</time>
      </trkpt>
      <trkpt lat="42.79128" lon="1.73244">
        <ele>951.8</ele>
        <time>2018-02-24T08:41:39Z</time>
      </trkpt>
      <trkpt lat="42.79144" lon="1.73255">
        <ele>952.91</ele>
        <time>2018-02-24T08:42:01Z</time>
      </trkpt>
      <trkpt lat="42.79153" lon="1.73276">
        <ele>956.47</ele>
        <time>2018-02-24T08:43:15Z</time>
      </trkpt>
      <trkpt lat="42.79172" lon="1.73282">
        <ele>960.48</ele>
        <time>2018-02-24T08:44:09Z</time>
      </trkpt>
      <trkpt lat="42.79183" lon="1.73302">
        <ele>963.54</ele>
        <time>2018-02-24T08:44:36Z</time>
      </trkpt>
      <trkpt lat="42.79188" lon="1.73327">
        <ele>966.37</ele>
        <time>2018-02-24T08:44:54Z</time>
      </trkpt>
      <trkpt lat="42.79202" lon="1.73343">
        <ele>970.44</ele>
        <time>2018-02-24T08:45:20Z</time>
      </trkpt>
      <trkpt lat="42.79215" lon="1.73361">
        <ele>974.28</ele>
        <time>2018-02-24T08:45:46Z</time>
      </trkpt>
      <trkpt lat="42.79228" lon="1.73381">
        <ele>978.22</ele>
        <time>2018-02-24T08:46:15Z</time>
      </trkpt>
      <trkpt lat="42.79241" lon="1.73397">
        <ele>980.86</ele>
        <time>2018-02-24T08:46:38Z</time>
      </trkpt>
      <trkpt lat="42.7926" lon="1.73402">
        <ele>983.86</ele>
        <time>2018-02-24T08:47:11Z</time>
      </trkpt>
      <trkpt lat="42.79278" lon="1.73404">
        <ele>986.18</ele>
        <time>2018-02-24T08:47:46Z</time>
      </trkpt>
      <trkpt lat="42.79288" lon="1.73424">
        <ele>988.65</ele>
        <time>2018-02-24T08:48:16Z</time>
      </trkpt>
      <trkpt lat="42.79302" lon="1.73409">
        <ele>990.95</ele>
        <time>2018-02-24T08:48:53Z</time>
      </trkpt>
      <trkpt lat="42.79317" lon="1.73395">
        <ele>993.51</ele>
        <time>2018-02-24T08:49:38Z</time>
      </trkpt>
      <trkpt lat="42.79335" lon="1.73397">
        <ele>996.03</ele>
        <time>2018-02-24T08:50:15Z</time>
      </trkpt>
      <trkpt lat="42.79354" lon="1.73401">
        <ele>998.79</ele>
        <time>2018-02-24T08:50:50Z</time>
      </trkpt>
      <trkpt lat="42.79372" lon="1.73399">
        <ele>1001.82</ele>
        <time>2018-02-24T08:51:20Z</time>
      </trkpt>
      <trkpt lat="42.79391" lon="1.734">
        <ele>1004.58</ele>
        <time>2018-02-24T08:51:49Z</time>
      </trkpt>
      <trkpt lat="42.79409" lon="1.73405">
        <ele>1007.67</ele>
        <time>2018-02-24T08:52:24Z</time>
      </trkpt>
      <trkpt lat="42.79427" lon="1.73396">
        <ele>1010.14</ele>
        <time>2018-02-24T08:53:05Z</time>
      </trkpt>
      <trkpt lat="42.79444" lon="1.73391">
        <ele>1012.41</ele>
        <time>2018-02-24T08:53:44Z</time>
      </trkpt>
      <trkpt lat="42.79455" lon="1.73411">
        <ele>1015.22</ele>
        <time>2018-02-24T08:54:48Z</time>
      </trkpt>
      <trkpt lat="42.79469" lon="1.73427">
        <ele>1022.19</ele>
        <time>2018-02-24T08:56:23Z</time>
      </trkpt>
      <trkpt lat="42.7946" lon="1.73461">
        <ele>1029.43</ele>
        <time>2018-02-24T08:57:34Z</time>
      </trkpt>
      <trkpt lat="42.79459" lon="1.73486">
        <ele>1032.15</ele>
        <time>2018-02-24T08:57:53Z</time>
      </trkpt>
      <trkpt lat="42.79461" lon="1.73512">
        <ele>1035.2</ele>
        <time>2018-02-24T08:58:15Z</time>
      </trkpt>
      <trkpt lat="42.79469" lon="1.73535">
        <ele>1040.28</ele>
        <time>2018-02-24T08:58:57Z</time>
      </trkpt>
      <trkpt lat="42.79469" lon="1.7356">
        <ele>1043.34</ele>
        <time>2018-02-24T08:59:24Z</time>
      </trkpt>
      <trkpt lat="42.79476" lon="1.73583">
        <ele>1050.49</ele>
        <time>2018-02-24T09:02:12Z</time>
      </trkpt>
      <trkpt lat="42.79493" lon="1.73573">
        <ele>1052.43</ele>
        <time>2018-02-24T09:02:44Z</time>
      </trkpt>
      <trkpt lat="42.7951" lon="1.73563">
        <ele>1053.6</ele>
        <time>2018-02-24T09:03:11Z</time>
      </trkpt>
      <trkpt lat="42.79528" lon="1.7356">
        <ele>1057.89</ele>
        <time>2018-02-24T09:05:59Z</time>
      </trkpt>
      <trkpt lat="42.79541" lon="1.73579">
        <ele>1062.27</ele>
        <time>2018-02-24T09:07:22Z</time>
      </trkpt>
      <trkpt lat="42.79549" lon="1.73602">
        <ele>1064.6</ele>
        <time>2018-02-24T09:08:03Z</time>
      </trkpt>
      <trkpt lat="42.79546" lon="1.73627">
        <ele>1065.94</ele>
        <time>2018-02-24T09:08:25Z</time>
      </trkpt>
      <trkpt lat="42.79539" lon="1.73651">
        <ele>1070.63</ele>
        <time>2018-02-24T09:09:10Z</time>
      </trkpt>
      <trkpt lat="42.79537" lon="1.73677">
        <ele>1076.98</ele>
        <time>2018-02-24T09:09:37Z</time>
      </trkpt>
      <trkpt lat="42.79531" lon="1.737">
        <ele>1083.61</ele>
        <time>2018-02-24T09:10:00Z</time>
      </trkpt>
      <trkpt lat="42.79533" lon="1.73726">
        <ele>1102.89</ele>
        <time>2018-02-24T09:11:30Z</time>
      </trkpt>
      <trkpt lat="42.79528" lon="1.7375">
        <ele>1127.82</ele>
        <time>2018-02-24T09:15:43Z</time>
      </trkpt>
      <trkpt lat="42.79521" lon="1.73774">
        <ele>1130.22</ele>
        <time>2018-02-24T09:16:06Z</time>
      </trkpt>
      <trkpt lat="42.79517" lon="1.73798">
        <ele>1132.36</ele>
        <time>2018-02-24T09:16:31Z</time>
      </trkpt>
      <trkpt lat="42.79518" lon="1.73823">
        <ele>1134.55</ele>
        <time>2018-02-24T09:16:56Z</time>
      </trkpt>
      <trkpt lat="42.79519" lon="1.73848">
        <ele>1137.25</ele>
        <time>2018-02-24T09:17:26Z</time>
      </trkpt>
      <trkpt lat="42.79512" lon="1.73873">
        <ele>1138.92</ele>
        <time>2018-02-24T09:17:47Z</time>
      </trkpt>
      <trkpt lat="42.79505" lon="1.73896">
        <ele>1140.62</ele>
        <time>2018-02-24T09:18:11Z</time>
      </trkpt>
      <trkpt lat="42.79499" lon="1.7392">
        <ele>1142.35</ele>
        <time>2018-02-24T09:18:35Z</time>
      </trkpt>
      <trkpt lat="42.79498" lon="1.73945">
        <ele>1144.36</ele>
        <time>2018-02-24T09:19:06Z</time>
      </trkpt>
      <trkpt lat="42.79508" lon="1.73967">
        <ele>1145.82</ele>
        <time>2018-02-24T09:19:24Z</time>
      </trkpt>
      <trkpt lat="42.79526" lon="1.73972">
        <ele>1147.4</ele>
        <time>2018-02-24T09:19:41Z</time>
      </trkpt>
      <trkpt lat="42.79545" lon="1.73972">
        <ele>1149.15</ele>
        <time>2018-02-24T09:20:00Z</time>
      </trkpt>
      <trkpt lat="42.79563" lon="1.73974">
        <ele>1151.73</ele>
        <time>2018-02-24T09:20:30Z</time>
      </trkpt>
      <trkpt lat="42.79581" lon="1.73979">
        <ele>1154.71</ele>
        <time>2018-02-24T09:21:11Z</time>
      </trkpt>
      <trkpt lat="42.79598" lon="1.73989">
        <ele>1158.22</ele>
        <time>2018-02-24T09:22:08Z</time>
      </trkpt>
      <trkpt lat="42.79615" lon="1.73981">
        <ele>1166.36</ele>
        <time>2018-02-24T09:24:01Z</time>
      </trkpt>
      <trkpt lat="42.79633" lon="1.73981">
        <ele>1176.72</ele>
        <time>2018-02-24T09:24:36Z</time>
      </trkpt>
      <trkpt lat="42.79651" lon="1.73983">
        <ele>1184.59</ele>
        <time>2018-02-24T09:25:03Z</time>
      </trkpt>
      <trkpt lat="42.79666" lon="1.73998">
        <ele>1191.6</ele>
        <time>2018-02-24T09:25:31Z</time>
      </trkpt>
      <trkpt lat="42.79683" lon="1.74005">
        <ele>1198.65</ele>
        <time>2018-02-24T09:26:03Z</time>
      </trkpt>
      <trkpt lat="42.79701" lon="1.74013">
        <ele>1204.12</ele>
        <time>2018-02-24T09:26:33Z</time>
      </trkpt>
      <trkpt lat="42.79719" lon="1.7401">
        <ele>1217.1</ele>
        <time>2018-02-24T09:30:12Z</time>
      </trkpt>
      <trkpt lat="42.79737" lon="1.74017">
        <ele>1223.67</ele>
        <time>2018-02-24T09:34:29Z</time>
      </trkpt>
      <trkpt lat="42.79755" lon="1.74017">
        <ele>1224.95</ele>
        <time>2018-02-24T09:34:54Z</time>
      </trkpt>
      <trkpt lat="42.79773" lon="1.7402">
        <ele>1226.2</ele>
        <time>2018-02-24T09:35:19Z</time>
      </trkpt>
      <trkpt lat="42.7979" lon="1.74012">
        <ele>1228.89</ele>
        <time>2018-02-24T09:36:21Z</time>
      </trkpt>
      <trkpt lat="42.79803" lon="1.73995">
        <ele>1230.36</ele>
        <time>2018-02-24T09:36:59Z</time>
      </trkpt>
      <trkpt lat="42.7981" lon="1.73971">
        <ele>1231.07</ele>
        <time>2018-02-24T09:37:36Z</time>
      </trkpt>
      <trkpt lat="42.79825" lon="1.73956">
        <ele>1232.25</ele>
        <time>2018-02-24T09:38:21Z</time>
      </trkpt>
      <trkpt lat="42.79837" lon="1.73939">
        <ele>1232.74</ele>
        <time>2018-02-24T09:38:53Z</time>
      </trkpt>
      <trkpt lat="42.79848" lon="1.73919">
        <ele>1234.3</ele>
        <time>2018-02-24T09:39:52Z</time>
      </trkpt>
      <trkpt lat="42.79867" lon="1.73918">
        <ele>1244.6</ele>
        <time>2018-02-24T09:42:26Z</time>
      </trkpt>
      <trkpt lat="42.79878" lon="1.73899">
        <ele>1245.73</ele>
        <time>2018-02-24T09:42:49Z</time>
      </trkpt>
      <trkpt lat="42.79894" lon="1.73887">
        <ele>1250.81</ele>
        <time>2018-02-24T09:43:52Z</time>
      </trkpt>
      <trkpt lat="42.79912" lon="1.73894">
        <ele>1254.95</ele>
        <time>2018-02-24T09:44:19Z</time>
      </trkpt>
      <trkpt lat="42.7993" lon="1.73901">
        <ele>1260.35</ele>
        <time>2018-02-24T09:44:56Z</time>
      </trkpt>
      <trkpt lat="42.79947" lon="1.73906">
        <ele>1263.92</ele>
        <time>2018-02-24T09:45:17Z</time>
      </trkpt>
      <trkpt lat="42.79965" lon="1.73919">
        <ele>1268.59</ele>
        <time>2018-02-24T09:45:42Z</time>
      </trkpt>
      <trkpt lat="42.79974" lon="1.73942">
        <ele>1275.4</ele>
        <time>2018-02-24T09:46:19Z</time>
      </trkpt>
      <trkpt lat="42.7999" lon="1.73954">
        <ele>1280.06</ele>
        <time>2018-02-24T09:46:54Z</time>
      </trkpt>
      <trkpt lat="42.80001" lon="1.73973">
        <ele>1284.49</ele>
        <time>2018-02-24T09:47:21Z</time>
      </trkpt>
      <trkpt lat="42.80015" lon="1.73989">
        <ele>1287.91</ele>
        <time>2018-02-24T09:47:45Z</time>
      </trkpt>
      <trkpt lat="42.80027" lon="1.74007">
        <ele>1291.03</ele>
        <time>2018-02-24T09:48:09Z</time>
      </trkpt>
      <trkpt lat="42.8004" lon="1.74024">
        <ele>1294.04</ele>
        <time>2018-02-24T09:48:36Z</time>
      </trkpt>
      <trkpt lat="42.80058" lon="1.74029">
        <ele>1301.3</ele>
        <time>2018-02-24T09:51:00Z</time>
      </trkpt>
      <trkpt lat="42.80075" lon="1.7404">
        <ele>1304.1</ele>
        <time>2018-02-24T09:51:30Z</time>
      </trkpt>
      <trkpt lat="42.80093" lon="1.74038">
        <ele>1308.31</ele>
        <time>2018-02-24T09:52:07Z</time>
      </trkpt>
      <trkpt lat="42.80111" lon="1.74034">
        <ele>1314.76</ele>
        <time>2018-02-24T09:53:42Z</time>
      </trkpt>
      <trkpt lat="42.80129" lon="1.74028">
        <ele>1316.68</ele>
        <time>2018-02-24T09:54:26Z</time>
      </trkpt>
      <trkpt lat="42.80148" lon="1.7403">
        <ele>1318.62</ele>
        <time>2018-02-24T09:55:04Z</time>
      </trkpt>
      <trkpt lat="42.80166" lon="1.74035">
        <ele>1322.59</ele>
        <time>2018-02-24T09:55:50Z</time>
      </trkpt>
      <trkpt lat="42.80184" lon="1.74039">
        <ele>1324.89</ele>
        <time>2018-02-24T09:56:11Z</time>
      </trkpt>
      <trkpt lat="42.80202" lon="1.74035">
        <ele>1328.13</ele>
        <time>2018-02-24T09:56:37Z</time>
      </trkpt>
      <trkpt lat="42.80219" lon="1.74027">
        <ele>1341.24</ele>
        <time>2018-02-24T09:59:21Z</time>
      </trkpt>
      <trkpt lat="42.80235" lon="1.74039">
        <ele>1355.63</ele>
        <time>2018-02-24T10:03:17Z</time>
      </trkpt>
      <trkpt lat="42.80253" lon="1.74047">
        <ele>1357.35</ele>
        <time>2018-02-24T10:03:43Z</time>
      </trkpt>
      <trkpt lat="42.80269" lon="1.74059">
        <ele>1358.45</ele>
        <time>2018-02-24T10:04:05Z</time>
      </trkpt>
      <trkpt lat="42.80286" lon="1.74069">
        <ele>1359.21</ele>
        <time>2018-02-24T10:04:23Z</time>
      </trkpt>
      <trkpt lat="42.80289" lon="1.74095">
        <ele>1360.32</ele>
        <time>2018-02-24T10:04:49Z</time>
      </trkpt>
      <trkpt lat="42.80292" lon="1.74119">
        <ele>1361.19</ele>
        <time>2018-02-24T10:05:07Z</time>
      </trkpt>
      <trkpt lat="42.80293" lon="1.74144">
        <ele>1362.81</ele>
        <time>2018-02-24T10:05:38Z</time>
      </trkpt>
      <trkpt lat="42.80296" lon="1.74169">
        <ele>1366.45</ele>
        <time>2018-02-24T10:06:55Z</time>
      </trkpt>
      <trkpt lat="42.80298" lon="1.74194">
        <ele>1368.96</ele>
        <time>2018-02-24T10:07:19Z</time>
      </trkpt>
      <trkpt lat="42.80304" lon="1.74217">
        <ele>1370.96</ele>
        <time>2018-02-24T10:07:38Z</time>
      </trkpt>
      <trkpt lat="42.80307" lon="1.74243">
        <ele>1373.26</ele>
        <time>2018-02-24T10:08:03Z</time>
      </trkpt>
      <trkpt lat="42.80311" lon="1.74269">
        <ele>1375.9</ele>
        <time>2018-02-24T10:08:25Z</time>
      </trkpt>
      <trkpt lat="42.80317" lon="1.74292">
        <ele>1378.83</ele>
        <time>2018-02-24T10:08:50Z</time>
      </trkpt>
      <trkpt lat="42.80322" lon="1.74317">
        <ele>1384.47</ele>
        <time>2018-02-24T10:09:48Z</time>
      </trkpt>
      <trkpt lat="42.80329" lon="1.7434">
        <ele>1388.17</ele>
        <time>2018-02-24T10:10:21Z</time>
      </trkpt>
      <trkpt lat="42.80339" lon="1.74362">
        <ele>1391.03</ele>
        <time>2018-02-24T10:10:49Z</time>
      </trkpt>
      <trkpt lat="42.80347" lon="1.74384">
        <ele>1394.74</ele>
        <time>2018-02-24T10:11:28Z</time>
      </trkpt>
      <trkpt lat="42.80362" lon="1.744">
        <ele>1402.43</ele>
        <time>2018-02-24T10:13:03Z</time>
      </trkpt>
      <trkpt lat="42.8038" lon="1.74408">
        <ele>1414.32</ele>
        <time>2018-02-24T10:14:46Z</time>
      </trkpt>
      <trkpt lat="42.80394" lon="1.74424">
        <ele>1420.5</ele>
        <time>2018-02-24T10:15:34Z</time>
      </trkpt>
      <trkpt lat="42.80407" lon="1.7444">
        <ele>1425.39</ele>
        <time>2018-02-24T10:16:36Z</time>
      </trkpt>
      <trkpt lat="42.80426" lon="1.74441">
        <ele>1429.6</ele>
        <time>2018-02-24T10:17:46Z</time>
      </trkpt>
      <trkpt lat="42.80439" lon="1.7446">
        <ele>1437.9</ele>
        <time>2018-02-24T10:19:07Z</time>
      </trkpt>
      <trkpt lat="42.80457" lon="1.74463">
        <ele>1443.23</ele>
        <time>2018-02-24T10:20:07Z</time>
      </trkpt>
      <trkpt lat="42.80475" lon="1.74459">
        <ele>1446.86</ele>
        <time>2018-02-24T10:20:49Z</time>
      </trkpt>
      <trkpt lat="42.80486" lon="1.74478">
        <ele>1453.71</ele>
        <time>2018-02-24T10:21:35Z</time>
      </trkpt>
      <trkpt lat="42.80505" lon="1.74483">
        <ele>1461.83</ele>
        <time>2018-02-24T10:22:33Z</time>
      </trkpt>
      <trkpt lat="42.80513" lon="1.74461">
        <ele>1465.85</ele>
        <time>2018-02-24T10:23:27Z</time>
      </trkpt>
      <trkpt lat="42.80524" lon="1.74441">
        <ele>1469.97</ele>
        <time>2018-02-24T10:24:44Z</time>
      </trkpt>
      <trkpt lat="42.80536" lon="1.74459">
        <ele>1474.24</ele>
        <time>2018-02-24T10:25:21Z</time>
      </trkpt>
      <trkpt lat="42.80554" lon="1.74461">
        <ele>1481.24</ele>
        <time>2018-02-24T10:26:18Z</time>
      </trkpt>
      <trkpt lat="42.80571" lon="1.74469">
        <ele>1486.11</ele>
        <time>2018-02-24T10:27:04Z</time>
      </trkpt>
      <trkpt lat="42.8059" lon="1.74468">
        <ele>1494.78</ele>
        <time>2018-02-24T10:29:00Z</time>
      </trkpt>
      <trkpt lat="42.80607" lon="1.7446">
        <ele>1497.97</ele>
        <time>2018-02-24T10:29:22Z</time>
      </trkpt>
      <trkpt lat="42.80608" lon="1.74435">
        <ele>1502.2</ele>
        <time>2018-02-24T10:29:51Z</time>
      </trkpt>
      <trkpt lat="42.80617" lon="1.74412">
        <ele>1514.85</ele>
        <time>2018-02-24T10:31:21Z</time>
      </trkpt>
      <trkpt lat="42.80621" lon="1.74388">
        <ele>1519.11</ele>
        <time>2018-02-24T10:31:52Z</time>
      </trkpt>
      <trkpt lat="42.80622" lon="1.74362">
        <ele>1530.88</ele>
        <time>2018-02-24T10:33:02Z</time>
      </trkpt>
      <trkpt lat="42.80621" lon="1.74337">
        <ele>1537.68</ele>
        <time>2018-02-24T10:33:46Z</time>
      </trkpt>
      <trkpt lat="42.80633" lon="1.74319">
        <ele>1571.42</ele>
        <time>2018-02-24T10:47:26Z</time>
      </trkpt>
      <trkpt lat="42.80649" lon="1.74306">
        <ele>1572.35</ele>
        <time>2018-02-24T10:48:05Z</time>
      </trkpt>
      <trkpt lat="42.80667" lon="1.74297">
        <ele>1573.27</ele>
        <time>2018-02-24T10:48:46Z</time>
      </trkpt>
      <trkpt lat="42.80683" lon="1.74286">
        <ele>1574</ele>
        <time>2018-02-24T10:49:21Z</time>
      </trkpt>
      <trkpt lat="42.80697" lon="1.74271">
        <ele>1575.12</ele>
        <time>2018-02-24T10:50:09Z</time>
      </trkpt>
      <trkpt lat="42.80714" lon="1.74261">
        <ele>1577.47</ele>
        <time>2018-02-24T10:50:51Z</time>
      </trkpt>
      <trkpt lat="42.80731" lon="1.74248">
        <ele>1579.53</ele>
        <time>2018-02-24T10:51:22Z</time>
      </trkpt>
      <trkpt lat="42.80748" lon="1.74238">
        <ele>1584.08</ele>
        <time>2018-02-24T10:52:15Z</time>
      </trkpt>
      <trkpt lat="42.8076" lon="1.74218">
        <ele>1589.23</ele>
        <time>2018-02-24T10:52:53Z</time>
      </trkpt>
      <trkpt lat="42.80765" lon="1.74194">
        <ele>1592.86</ele>
        <time>2018-02-24T10:53:19Z</time>
      </trkpt>
      <trkpt lat="42.80778" lon="1.74176">
        <ele>1600.67</ele>
        <time>2018-02-24T10:53:57Z</time>
      </trkpt>
      <trkpt lat="42.8079" lon="1.74157">
        <ele>1608.23</ele>
        <time>2018-02-24T10:54:42Z</time>
      </trkpt>
      <trkpt lat="42.808" lon="1.74135">
        <ele>1613.28</ele>
        <time>2018-02-24T10:55:08Z</time>
      </trkpt>
      <trkpt lat="42.80802" lon="1.7411">
        <ele>1620.04</ele>
        <time>2018-02-24T10:55:43Z</time>
      </trkpt>
      <trkpt lat="42.80806" lon="1.74086">
        <ele>1626.02</ele>
        <time>2018-02-24T10:56:16Z</time>
      </trkpt>
      <trkpt lat="42.80814" lon="1.74063">
        <ele>1641.92</ele>
        <time>2018-02-24T10:58:10Z</time>
      </trkpt>
      <trkpt lat="42.80827" lon="1.74046">
        <ele>1647.96</ele>
        <time>2018-02-24T10:59:08Z</time>
      </trkpt>
      <trkpt lat="42.80841" lon="1.7403">
        <ele>1651.78</ele>
        <time>2018-02-24T11:00:02Z</time>
      </trkpt>
      <trkpt lat="42.80859" lon="1.74034">
        <ele>1669.88</ele>
        <time>2018-02-24T11:05:55Z</time>
      </trkpt>
      <trkpt lat="42.80876" lon="1.74038">
        <ele>1672.7</ele>
        <time>2018-02-24T11:06:25Z</time>
      </trkpt>
      <trkpt lat="42.80892" lon="1.74051">
        <ele>1675.27</ele>
        <time>2018-02-24T11:07:00Z</time>
      </trkpt>
      <trkpt lat="42.8091" lon="1.74059">
        <ele>1677.2</ele>
        <time>2018-02-24T11:07:58Z</time>
      </trkpt>
      <trkpt lat="42.80926" lon="1.74071">
        <ele>1678.14</ele>
        <time>2018-02-24T11:08:44Z</time>
      </trkpt>
      <trkpt lat="42.80945" lon="1.74075">
        <ele>1678.49</ele>
        <time>2018-02-24T11:09:02Z</time>
      </trkpt>
      <trkpt lat="42.80962" lon="1.74084">
        <ele>1678.87</ele>
        <time>2018-02-24T11:09:25Z</time>
      </trkpt>
      <trkpt lat="42.8098" lon="1.74089">
        <ele>1679.74</ele>
        <time>2018-02-24T11:10:22Z</time>
      </trkpt>
      <trkpt lat="42.80996" lon="1.741">
        <ele>1680.34</ele>
        <time>2018-02-24T11:10:44Z</time>
      </trkpt>
      <trkpt lat="42.81011" lon="1.74114">
        <ele>1681.03</ele>
        <time>2018-02-24T11:11:10Z</time>
      </trkpt>
      <trkpt lat="42.81025" lon="1.7413">
        <ele>1681.85</ele>
        <time>2018-02-24T11:11:44Z</time>
      </trkpt>
      <trkpt lat="42.81042" lon="1.74138">
        <ele>1684.41</ele>
        <time>2018-02-24T11:14:13Z</time>
      </trkpt>
      <trkpt lat="42.81057" lon="1.74153">
        <ele>1686.58</ele>
        <time>2018-02-24T11:14:54Z</time>
      </trkpt>
      <trkpt lat="42.81072" lon="1.7417">
        <ele>1688.21</ele>
        <time>2018-02-24T11:15:27Z</time>
      </trkpt>
      <trkpt lat="42.8109" lon="1.74177">
        <ele>1693.43</ele>
        <time>2018-02-24T11:17:06Z</time>
      </trkpt>
      <trkpt lat="42.81108" lon="1.74178">
        <ele>1695.81</ele>
        <time>2018-02-24T11:17:20Z</time>
      </trkpt>
      <trkpt lat="42.81119" lon="1.74158">
        <ele>1708.17</ele>
        <time>2018-02-24T11:19:50Z</time>
      </trkpt>
      <trkpt lat="42.81127" lon="1.74134">
        <ele>1709.62</ele>
        <time>2018-02-24T11:20:11Z</time>
      </trkpt>
      <trkpt lat="42.81145" lon="1.74138">
        <ele>1710.91</ele>
        <time>2018-02-24T11:20:37Z</time>
      </trkpt>
      <trkpt lat="42.81162" lon="1.74151">
        <ele>1711.54</ele>
        <time>2018-02-24T11:21:00Z</time>
      </trkpt>
      <trkpt lat="42.8118" lon="1.7416">
        <ele>1711.94</ele>
        <time>2018-02-24T11:21:34Z</time>
      </trkpt>
      <trkpt lat="42.81196" lon="1.74172">
        <ele>1712.17</ele>
        <time>2018-02-24T11:21:55Z</time>
      </trkpt>
      <trkpt lat="42.81212" lon="1.74184">
        <ele>1712.43</ele>
        <time>2018-02-24T11:22:35Z</time>
      </trkpt>
      <trkpt lat="42.8123" lon="1.74191">
        <ele>1712.51</ele>
        <time>2018-02-24T11:23:03Z</time>
      </trkpt>
      <trkpt lat="42.81243" lon="1.74209">
        <ele>1713.4</ele>
        <time>2018-02-24T11:26:40Z</time>
      </trkpt>
      <trkpt lat="42.81262" lon="1.74211">
        <ele>1713.57</ele>
        <time>2018-02-24T11:26:49Z</time>
      </trkpt>
      <trkpt lat="42.81279" lon="1.74224">
        <ele>1713.75</ele>
        <time>2018-02-24T11:27:04Z</time>
      </trkpt>
      <trkpt lat="42.81295" lon="1.74238">
        <ele>1713.87</ele>
        <time>2018-02-24T11:27:22Z</time>
      </trkpt>
      <trkpt lat="42.8131" lon="1.74252">
        <ele>1713.96</ele>
        <time>2018-02-24T11:27:44Z</time>
      </trkpt>
      <trkpt lat="42.81327" lon="1.74264">
        <ele>1714.02</ele>
        <time>2018-02-24T11:28:08Z</time>
      </trkpt>
      <trkpt lat="42.81344" lon="1.74271">
        <ele>1714.11</ele>
        <time>2018-02-24T11:28:32Z</time>
      </trkpt>
      <trkpt lat="42.81359" lon="1.74287">
        <ele>1714.26</ele>
        <time>2018-02-24T11:28:52Z</time>
      </trkpt>
      <trkpt lat="42.81373" lon="1.74301">
        <ele>1714.44</ele>
        <time>2018-02-24T11:29:11Z</time>
      </trkpt>
      <trkpt lat="42.81388" lon="1.74317">
        <ele>1714.73</ele>
        <time>2018-02-24T11:29:33Z</time>
      </trkpt>
      <trkpt lat="42.81406" lon="1.7432">
        <ele>1715.06</ele>
        <time>2018-02-24T11:29:57Z</time>
      </trkpt>
      <trkpt lat="42.81426" lon="1.74322">
        <ele>1715.32</ele>
        <time>2018-02-24T11:30:14Z</time>
      </trkpt>
      <trkpt lat="42.81443" lon="1.74328">
        <ele>1715.85</ele>
        <time>2018-02-24T11:30:36Z</time>
      </trkpt>
      <trkpt lat="42.81461" lon="1.74331">
        <ele>1716.18</ele>
        <time>2018-02-24T11:30:52Z</time>
      </trkpt>
      <trkpt lat="42.8148" lon="1.74329">
        <ele>1716.48</ele>
        <time>2018-02-24T11:31:09Z</time>
      </trkpt>
      <trkpt lat="42.81499" lon="1.74329">
        <ele>1716.82</ele>
        <time>2018-02-24T11:31:31Z</time>
      </trkpt>
      <trkpt lat="42.81517" lon="1.74323">
        <ele>1717.15</ele>
        <time>2018-02-24T11:31:52Z</time>
      </trkpt>
      <trkpt lat="42.81528" lon="1.74301">
        <ele>1718.46</ele>
        <time>2018-02-24T11:34:03Z</time>
      </trkpt>
      <trkpt lat="42.81523" lon="1.74277">
        <ele>1719.23</ele>
        <time>2018-02-24T11:34:24Z</time>
      </trkpt>
      <trkpt lat="42.81514" lon="1.74256">
        <ele>1720.24</ele>
        <time>2018-02-24T11:34:58Z</time>
      </trkpt>
      <trkpt lat="42.81502" lon="1.74235">
        <ele>1720.91</ele>
        <time>2018-02-24T11:35:24Z</time>
      </trkpt>
      <trkpt lat="42.8149" lon="1.74216">
        <ele>1721.74</ele>
        <time>2018-02-24T11:35:50Z</time>
      </trkpt>
      <trkpt lat="42.81476" lon="1.742">
        <ele>1722.86</ele>
        <time>2018-02-24T11:36:22Z</time>
      </trkpt>
      <trkpt lat="42.81463" lon="1.74181">
        <ele>1724.09</ele>
        <time>2018-02-24T11:36:47Z</time>
      </trkpt>
      <trkpt lat="42.81452" lon="1.74162">
        <ele>1725.57</ele>
        <time>2018-02-24T11:37:05Z</time>
      </trkpt>
      <trkpt lat="42.81445" lon="1.74139">
        <ele>1771.28</ele>
        <time>2018-02-24T12:07:26Z</time>
      </trkpt>
      <trkpt lat="42.81456" lon="1.74158">
        <ele>1771.34</ele>
        <time>2018-02-24T12:08:21Z</time>
      </trkpt>
      <trkpt lat="42.81458" lon="1.74134">
        <ele>1771.68</ele>
        <time>2018-02-24T12:37:34Z</time>
      </trkpt>
      <trkpt lat="42.81446" lon="1.74153">
        <ele>1771.48</ele>
        <time>2018-02-24T12:39:51Z</time>
      </trkpt>
      <trkpt lat="42.81452" lon="1.74176">
        <ele>1771.84</ele>
        <time>2018-02-24T12:42:38Z</time>
      </trkpt>
      <trkpt lat="42.81457" lon="1.742">
        <ele>1771.82</ele>
        <time>2018-02-24T12:43:36Z</time>
      </trkpt>
      <trkpt lat="42.81467" lon="1.74226">
        <ele>1771.73</ele>
        <time>2018-02-24T12:44:48Z</time>
      </trkpt>
      <trkpt lat="42.81471" lon="1.74251">
        <ele>1771.69</ele>
        <time>2018-02-24T12:44:56Z</time>
      </trkpt>
      <trkpt lat="42.81475" lon="1.74275">
        <ele>1771.64</ele>
        <time>2018-02-24T12:45:08Z</time>
      </trkpt>
      <trkpt lat="42.81476" lon="1.7425">
        <ele>1770.42</ele>
        <time>2018-02-24T12:46:50Z</time>
      </trkpt>
      <trkpt lat="42.81476" lon="1.74226">
        <ele>1769.78</ele>
        <time>2018-02-24T12:47:31Z</time>
      </trkpt>
      <trkpt lat="42.81469" lon="1.74202">
        <ele>1769.33</ele>
        <time>2018-02-24T12:48:08Z</time>
      </trkpt>
      <trkpt lat="42.81462" lon="1.7423">
        <ele>1768.92</ele>
        <time>2018-02-24T12:50:45Z</time>
      </trkpt>
      <trkpt lat="42.81463" lon="1.74256">
        <ele>1768.87</ele>
        <time>2018-02-24T12:50:57Z</time>
      </trkpt>
      <trkpt lat="42.81464" lon="1.74281">
        <ele>1768.6</ele>
        <time>2018-02-24T12:51:17Z</time>
      </trkpt>
      <trkpt lat="42.81476" lon="1.74262">
        <ele>1767.61</ele>
        <time>2018-02-24T12:52:24Z</time>
      </trkpt>
      <trkpt lat="42.81477" lon="1.74288">
        <ele>1763.32</ele>
        <time>2018-02-24T12:56:50Z</time>
      </trkpt>
      <trkpt lat="42.81476" lon="1.74313">
        <ele>1756.85</ele>
        <time>2018-02-24T13:00:51Z</time>
      </trkpt>
      <trkpt lat="42.8146" lon="1.74325">
        <ele>1753.93</ele>
        <time>2018-02-24T13:03:53Z</time>
      </trkpt>
      <trkpt lat="42.81443" lon="1.74331">
        <ele>1753.6</ele>
        <time>2018-02-24T13:04:10Z</time>
      </trkpt>
      <trkpt lat="42.81428" lon="1.74316">
        <ele>1749.63</ele>
        <time>2018-02-24T13:10:41Z</time>
      </trkpt>
      <trkpt lat="42.81415" lon="1.74299">
        <ele>1749.1</ele>
        <time>2018-02-24T13:11:03Z</time>
      </trkpt>
      <trkpt lat="42.814" lon="1.74286">
        <ele>1746.56</ele>
        <time>2018-02-24T13:14:49Z</time>
      </trkpt>
      <trkpt lat="42.81383" lon="1.74274">
        <ele>1745.26</ele>
        <time>2018-02-24T13:15:27Z</time>
      </trkpt>
      <trkpt lat="42.81366" lon="1.74267">
        <ele>1744.51</ele>
        <time>2018-02-24T13:15:45Z</time>
      </trkpt>
      <trkpt lat="42.81347" lon="1.74263">
        <ele>1738.29</ele>
        <time>2018-02-24T13:17:29Z</time>
      </trkpt>
      <trkpt lat="42.81329" lon="1.74258">
        <ele>1734.1</ele>
        <time>2018-02-24T13:17:59Z</time>
      </trkpt>
      <trkpt lat="42.81314" lon="1.74245">
        <ele>1731.84</ele>
        <time>2018-02-24T13:18:22Z</time>
      </trkpt>
      <trkpt lat="42.81298" lon="1.74232">
        <ele>1730.55</ele>
        <time>2018-02-24T13:18:41Z</time>
      </trkpt>
      <trkpt lat="42.81284" lon="1.74215">
        <ele>1729.35</ele>
        <time>2018-02-24T13:19:04Z</time>
      </trkpt>
      <trkpt lat="42.81267" lon="1.74206">
        <ele>1728.37</ele>
        <time>2018-02-24T13:19:31Z</time>
      </trkpt>
      <trkpt lat="42.81248" lon="1.74205">
        <ele>1727.35</ele>
        <time>2018-02-24T13:20:13Z</time>
      </trkpt>
      <trkpt lat="42.81233" lon="1.74193">
        <ele>1726.73</ele>
        <time>2018-02-24T13:21:15Z</time>
      </trkpt>
      <trkpt lat="42.81216" lon="1.74182">
        <ele>1726.21</ele>
        <time>2018-02-24T13:21:52Z</time>
      </trkpt>
      <trkpt lat="42.81201" lon="1.74169">
        <ele>1725.93</ele>
        <time>2018-02-24T13:22:13Z</time>
      </trkpt>
      <trkpt lat="42.81184" lon="1.74155">
        <ele>1725.69</ele>
        <time>2018-02-24T13:22:36Z</time>
      </trkpt>
      <trkpt lat="42.81168" lon="1.74144">
        <ele>1725.46</ele>
        <time>2018-02-24T13:22:56Z</time>
      </trkpt>
      <trkpt lat="42.81151" lon="1.74134">
        <ele>1725.23</ele>
        <time>2018-02-24T13:23:24Z</time>
      </trkpt>
      <trkpt lat="42.81133" lon="1.74131">
        <ele>1725.06</ele>
        <time>2018-02-24T13:24:01Z</time>
      </trkpt>
      <trkpt lat="42.81116" lon="1.74122">
        <ele>1724.95</ele>
        <time>2018-02-24T13:24:30Z</time>
      </trkpt>
      <trkpt lat="42.81098" lon="1.74117">
        <ele>1724.71</ele>
        <time>2018-02-24T13:25:14Z</time>
      </trkpt>
      <trkpt lat="42.81081" lon="1.7411">
        <ele>1724.48</ele>
        <time>2018-02-24T13:26:11Z</time>
      </trkpt>
      <trkpt lat="42.81063" lon="1.74105">
        <ele>1724.36</ele>
        <time>2018-02-24T13:26:32Z</time>
      </trkpt>
      <trkpt lat="42.81044" lon="1.741">
        <ele>1724.12</ele>
        <time>2018-02-24T13:26:59Z</time>
      </trkpt>
      <trkpt lat="42.81026" lon="1.74097">
        <ele>1723.9</ele>
        <time>2018-02-24T13:27:16Z</time>
      </trkpt>
      <trkpt lat="42.81008" lon="1.74093">
        <ele>1723.59</ele>
        <time>2018-02-24T13:27:33Z</time>
      </trkpt>
      <trkpt lat="42.8099" lon="1.74085">
        <ele>1723.22</ele>
        <time>2018-02-24T13:27:50Z</time>
      </trkpt>
      <trkpt lat="42.80973" lon="1.74079">
        <ele>1722.87</ele>
        <time>2018-02-24T13:28:07Z</time>
      </trkpt>
      <trkpt lat="42.80956" lon="1.74067">
        <ele>1722.45</ele>
        <time>2018-02-24T13:28:26Z</time>
      </trkpt>
      <trkpt lat="42.80938" lon="1.7406">
        <ele>1722.01</ele>
        <time>2018-02-24T13:28:44Z</time>
      </trkpt>
      <trkpt lat="42.80921" lon="1.74052">
        <ele>1721.23</ele>
        <time>2018-02-24T13:29:20Z</time>
      </trkpt>
      <trkpt lat="42.80905" lon="1.74039">
        <ele>1720.38</ele>
        <time>2018-02-24T13:29:51Z</time>
      </trkpt>
      <trkpt lat="42.80887" lon="1.74031">
        <ele>1719.56</ele>
        <time>2018-02-24T13:30:16Z</time>
      </trkpt>
      <trkpt lat="42.80869" lon="1.74023">
        <ele>1718.77</ele>
        <time>2018-02-24T13:30:40Z</time>
      </trkpt>
      <trkpt lat="42.80853" lon="1.74012">
        <ele>1715.24</ele>
        <time>2018-02-24T13:33:19Z</time>
      </trkpt>
      <trkpt lat="42.80844" lon="1.74034">
        <ele>1708.89</ele>
        <time>2018-02-24T13:39:10Z</time>
      </trkpt>
      <trkpt lat="42.80828" lon="1.74045">
        <ele>1708.07</ele>
        <time>2018-02-24T13:39:57Z</time>
      </trkpt>
      <trkpt lat="42.80816" lon="1.74063">
        <ele>1707.24</ele>
        <time>2018-02-24T13:41:37Z</time>
      </trkpt>
      <trkpt lat="42.80807" lon="1.74084">
        <ele>1706.65</ele>
        <time>2018-02-24T13:42:05Z</time>
      </trkpt>
      <trkpt lat="42.80802" lon="1.74108">
        <ele>1705.94</ele>
        <time>2018-02-24T13:43:10Z</time>
      </trkpt>
      <trkpt lat="42.80799" lon="1.74133">
        <ele>1705.35</ele>
        <time>2018-02-24T13:43:51Z</time>
      </trkpt>
      <trkpt lat="42.80791" lon="1.74156">
        <ele>1704.69</ele>
        <time>2018-02-24T13:44:14Z</time>
      </trkpt>
      <trkpt lat="42.80778" lon="1.74173">
        <ele>1704</ele>
        <time>2018-02-24T13:44:31Z</time>
      </trkpt>
      <trkpt lat="42.80766" lon="1.74192">
        <ele>1702.63</ele>
        <time>2018-02-24T13:45:00Z</time>
      </trkpt>
      <trkpt lat="42.80748" lon="1.74196">
        <ele>1700.45</ele>
        <time>2018-02-24T13:45:19Z</time>
      </trkpt>
      <trkpt lat="42.8073" lon="1.74198">
        <ele>1696.47</ele>
        <time>2018-02-24T13:45:39Z</time>
      </trkpt>
      <trkpt lat="42.80711" lon="1.74196">
        <ele>1691.04</ele>
        <time>2018-02-24T13:45:57Z</time>
      </trkpt>
      <trkpt lat="42.80693" lon="1.74193">
        <ele>1683.71</ele>
        <time>2018-02-24T13:46:16Z</time>
      </trkpt>
      <trkpt lat="42.80675" lon="1.74189">
        <ele>1670.02</ele>
        <time>2018-02-24T13:46:57Z</time>
      </trkpt>
      <trkpt lat="42.80658" lon="1.7418">
        <ele>1658.46</ele>
        <time>2018-02-24T13:47:20Z</time>
      </trkpt>
      <trkpt lat="42.8064" lon="1.74173">
        <ele>1648.99</ele>
        <time>2018-02-24T13:47:43Z</time>
      </trkpt>
      <trkpt lat="42.80629" lon="1.74153">
        <ele>1639.25</ele>
        <time>2018-02-24T13:48:31Z</time>
      </trkpt>
      <trkpt lat="42.80625" lon="1.74128">
        <ele>1631.78</ele>
        <time>2018-02-24T13:48:52Z</time>
      </trkpt>
      <trkpt lat="42.80622" lon="1.74104">
        <ele>1622.67</ele>
        <time>2018-02-24T13:49:27Z</time>
      </trkpt>
      <trkpt lat="42.80606" lon="1.74092">
        <ele>1603.46</ele>
        <time>2018-02-24T13:53:06Z</time>
      </trkpt>
      <trkpt lat="42.80593" lon="1.74073">
        <ele>1599.54</ele>
        <time>2018-02-24T13:53:46Z</time>
      </trkpt>
      <trkpt lat="42.80576" lon="1.74063">
        <ele>1595.08</ele>
        <time>2018-02-24T13:55:04Z</time>
      </trkpt>
      <trkpt lat="42.8057" lon="1.74039">
        <ele>1592.84</ele>
        <time>2018-02-24T13:55:29Z</time>
      </trkpt>
      <trkpt lat="42.80567" lon="1.74014">
        <ele>1591.35</ele>
        <time>2018-02-24T13:55:50Z</time>
      </trkpt>
      <trkpt lat="42.8056" lon="1.73991">
        <ele>1589.95</ele>
        <time>2018-02-24T13:56:13Z</time>
      </trkpt>
      <trkpt lat="42.80551" lon="1.73969">
        <ele>1588.89</ele>
        <time>2018-02-24T13:56:32Z</time>
      </trkpt>
      <trkpt lat="42.8054" lon="1.7395">
        <ele>1587.67</ele>
        <time>2018-02-24T13:56:51Z</time>
      </trkpt>
      <trkpt lat="42.8053" lon="1.73928">
        <ele>1586.59</ele>
        <time>2018-02-24T13:57:08Z</time>
      </trkpt>
      <trkpt lat="42.80523" lon="1.73905">
        <ele>1585.47</ele>
        <time>2018-02-24T13:57:25Z</time>
      </trkpt>
      <trkpt lat="42.80513" lon="1.73884">
        <ele>1584.03</ele>
        <time>2018-02-24T13:57:47Z</time>
      </trkpt>
      <trkpt lat="42.80501" lon="1.73864">
        <ele>1582.75</ele>
        <time>2018-02-24T13:58:06Z</time>
      </trkpt>
      <trkpt lat="42.80489" lon="1.73845">
        <ele>1581.54</ele>
        <time>2018-02-24T13:58:24Z</time>
      </trkpt>
      <trkpt lat="42.80471" lon="1.73836">
        <ele>1580.43</ele>
        <time>2018-02-24T13:58:41Z</time>
      </trkpt>
      <trkpt lat="42.80454" lon="1.73828">
        <ele>1574.91</ele>
        <time>2018-02-24T14:00:11Z</time>
      </trkpt>
      <trkpt lat="42.80437" lon="1.73816">
        <ele>1573.22</ele>
        <time>2018-02-24T14:00:26Z</time>
      </trkpt>
      <trkpt lat="42.80419" lon="1.73809">
        <ele>1571.51</ele>
        <time>2018-02-24T14:00:43Z</time>
      </trkpt>
      <trkpt lat="42.80401" lon="1.73803">
        <ele>1569.32</ele>
        <time>2018-02-24T14:01:12Z</time>
      </trkpt>
      <trkpt lat="42.80382" lon="1.73805">
        <ele>1567.36</ele>
        <time>2018-02-24T14:01:38Z</time>
      </trkpt>
      <trkpt lat="42.80364" lon="1.73808">
        <ele>1565.75</ele>
        <time>2018-02-24T14:01:48Z</time>
      </trkpt>
      <trkpt lat="42.80346" lon="1.73809">
        <ele>1562.07</ele>
        <time>2018-02-24T14:02:05Z</time>
      </trkpt>
      <trkpt lat="42.80327" lon="1.73812">
        <ele>1557.71</ele>
        <time>2018-02-24T14:02:23Z</time>
      </trkpt>
      <trkpt lat="42.80308" lon="1.73809">
        <ele>1552.92</ele>
        <time>2018-02-24T14:02:37Z</time>
      </trkpt>
      <trkpt lat="42.8029" lon="1.73816">
        <ele>1547.48</ele>
        <time>2018-02-24T14:02:53Z</time>
      </trkpt>
      <trkpt lat="42.80272" lon="1.73817">
        <ele>1538.12</ele>
        <time>2018-02-24T14:03:23Z</time>
      </trkpt>
      <trkpt lat="42.80253" lon="1.73818">
        <ele>1531.82</ele>
        <time>2018-02-24T14:03:38Z</time>
      </trkpt>
      <trkpt lat="42.80235" lon="1.73826">
        <ele>1526.02</ele>
        <time>2018-02-24T14:03:53Z</time>
      </trkpt>
      <trkpt lat="42.80216" lon="1.73828">
        <ele>1519.16</ele>
        <time>2018-02-24T14:04:12Z</time>
      </trkpt>
      <trkpt lat="42.80198" lon="1.73831">
        <ele>1511.48</ele>
        <time>2018-02-24T14:04:37Z</time>
      </trkpt>
      <trkpt lat="42.8018" lon="1.73832">
        <ele>1494.08</ele>
        <time>2018-02-24T14:05:36Z</time>
      </trkpt>
      <trkpt lat="42.80163" lon="1.73845">
        <ele>1485.59</ele>
        <time>2018-02-24T14:06:03Z</time>
      </trkpt>
      <trkpt lat="42.80145" lon="1.73848">
        <ele>1462.35</ele>
        <time>2018-02-24T14:07:27Z</time>
      </trkpt>
      <trkpt lat="42.80127" lon="1.73843">
        <ele>1453.67</ele>
        <time>2018-02-24T14:08:00Z</time>
      </trkpt>
      <trkpt lat="42.8011" lon="1.73854">
        <ele>1449.07</ele>
        <time>2018-02-24T14:08:14Z</time>
      </trkpt>
      <trkpt lat="42.80096" lon="1.73872">
        <ele>1444.51</ele>
        <time>2018-02-24T14:08:28Z</time>
      </trkpt>
      <trkpt lat="42.80084" lon="1.7389">
        <ele>1439.87</ele>
        <time>2018-02-24T14:08:43Z</time>
      </trkpt>
      <trkpt lat="42.80066" lon="1.73887">
        <ele>1429.7</ele>
        <time>2018-02-24T14:09:32Z</time>
      </trkpt>
      <trkpt lat="42.80078" lon="1.73905">
        <ele>1413.61</ele>
        <time>2018-02-24T14:10:42Z</time>
      </trkpt>
      <trkpt lat="42.80092" lon="1.73922">
        <ele>1408.67</ele>
        <time>2018-02-24T14:11:04Z</time>
      </trkpt>
      <trkpt lat="42.80108" lon="1.73936">
        <ele>1401.67</ele>
        <time>2018-02-24T14:12:13Z</time>
      </trkpt>
      <trkpt lat="42.80116" lon="1.73958">
        <ele>1397.53</ele>
        <time>2018-02-24T14:12:59Z</time>
      </trkpt>
      <trkpt lat="42.8011" lon="1.73982">
        <ele>1394.24</ele>
        <time>2018-02-24T14:13:40Z</time>
      </trkpt>
      <trkpt lat="42.80099" lon="1.74002">
        <ele>1391.84</ele>
        <time>2018-02-24T14:14:13Z</time>
      </trkpt>
      <trkpt lat="42.80115" lon="1.74013">
        <ele>1383.1</ele>
        <time>2018-02-24T14:17:47Z</time>
      </trkpt>
      <trkpt lat="42.80117" lon="1.74038">
        <ele>1370.93</ele>
        <time>2018-02-24T14:23:11Z</time>
      </trkpt>
      <trkpt lat="42.801" lon="1.74046">
        <ele>1370.11</ele>
        <time>2018-02-24T14:23:32Z</time>
      </trkpt>
      <trkpt lat="42.8008" lon="1.74052">
        <ele>1367.42</ele>
        <time>2018-02-24T14:24:43Z</time>
      </trkpt>
      <trkpt lat="42.80063" lon="1.74045">
        <ele>1365.99</ele>
        <time>2018-02-24T14:25:07Z</time>
      </trkpt>
      <trkpt lat="42.80047" lon="1.74031">
        <ele>1364.93</ele>
        <time>2018-02-24T14:25:26Z</time>
      </trkpt>
      <trkpt lat="42.80031" lon="1.74019">
        <ele>1364</ele>
        <time>2018-02-24T14:25:42Z</time>
      </trkpt>
      <trkpt lat="42.80019" lon="1.74001">
        <ele>1362.3</ele>
        <time>2018-02-24T14:26:04Z</time>
      </trkpt>
      <trkpt lat="42.80011" lon="1.73978">
        <ele>1360</ele>
        <time>2018-02-24T14:26:23Z</time>
      </trkpt>
      <trkpt lat="42.79998" lon="1.73959">
        <ele>1357.53</ele>
        <time>2018-02-24T14:26:41Z</time>
      </trkpt>
      <trkpt lat="42.79986" lon="1.73942">
        <ele>1353.79</ele>
        <time>2018-02-24T14:27:06Z</time>
      </trkpt>
      <trkpt lat="42.79974" lon="1.73922">
        <ele>1348.85</ele>
        <time>2018-02-24T14:27:34Z</time>
      </trkpt>
      <trkpt lat="42.79958" lon="1.7391">
        <ele>1345.38</ele>
        <time>2018-02-24T14:27:50Z</time>
      </trkpt>
      <trkpt lat="42.7994" lon="1.73904">
        <ele>1341.51</ele>
        <time>2018-02-24T14:28:07Z</time>
      </trkpt>
      <trkpt lat="42.79922" lon="1.73897">
        <ele>1337.43</ele>
        <time>2018-02-24T14:28:26Z</time>
      </trkpt>
      <trkpt lat="42.79903" lon="1.73902">
        <ele>1332.9</ele>
        <time>2018-02-24T14:28:48Z</time>
      </trkpt>
      <trkpt lat="42.79887" lon="1.73914">
        <ele>1328.59</ele>
        <time>2018-02-24T14:29:09Z</time>
      </trkpt>
      <trkpt lat="42.7987" lon="1.73924">
        <ele>1325.76</ele>
        <time>2018-02-24T14:29:25Z</time>
      </trkpt>
      <trkpt lat="42.79853" lon="1.73936">
        <ele>1322.51</ele>
        <time>2018-02-24T14:29:43Z</time>
      </trkpt>
      <trkpt lat="42.79837" lon="1.73953">
        <ele>1318.95</ele>
        <time>2018-02-24T14:29:56Z</time>
      </trkpt>
      <trkpt lat="42.79822" lon="1.73967">
        <ele>1314.36</ele>
        <time>2018-02-24T14:30:10Z</time>
      </trkpt>
      <trkpt lat="42.79809" lon="1.73984">
        <ele>1309.29</ele>
        <time>2018-02-24T14:30:24Z</time>
      </trkpt>
      <trkpt lat="42.79793" lon="1.73999">
        <ele>1303.13</ele>
        <time>2018-02-24T14:30:40Z</time>
      </trkpt>
      <trkpt lat="42.79775" lon="1.74008">
        <ele>1295.6</ele>
        <time>2018-02-24T14:30:58Z</time>
      </trkpt>
      <trkpt lat="42.79757" lon="1.74009">
        <ele>1289.34</ele>
        <time>2018-02-24T14:31:14Z</time>
      </trkpt>
      <trkpt lat="42.79738" lon="1.7401">
        <ele>1284.37</ele>
        <time>2018-02-24T14:31:28Z</time>
      </trkpt>
      <trkpt lat="42.7972" lon="1.74009">
        <ele>1279.67</ele>
        <time>2018-02-24T14:31:42Z</time>
      </trkpt>
      <trkpt lat="42.79702" lon="1.74005">
        <ele>1274.16</ele>
        <time>2018-02-24T14:32:00Z</time>
      </trkpt>
      <trkpt lat="42.79684" lon="1.74005">
        <ele>1270.14</ele>
        <time>2018-02-24T14:32:14Z</time>
      </trkpt>
      <trkpt lat="42.79664" lon="1.74004">
        <ele>1261.76</ele>
        <time>2018-02-24T14:33:03Z</time>
      </trkpt>
      <trkpt lat="42.7965" lon="1.73987">
        <ele>1253.07</ele>
        <time>2018-02-24T14:34:18Z</time>
      </trkpt>
      <trkpt lat="42.79633" lon="1.73977">
        <ele>1250.4</ele>
        <time>2018-02-24T14:34:32Z</time>
      </trkpt>
      <trkpt lat="42.79617" lon="1.73964">
        <ele>1247.96</ele>
        <time>2018-02-24T14:34:46Z</time>
      </trkpt>
      <trkpt lat="42.79599" lon="1.73962">
        <ele>1244.83</ele>
        <time>2018-02-24T14:35:06Z</time>
      </trkpt>
      <trkpt lat="42.79581" lon="1.73959">
        <ele>1241.77</ele>
        <time>2018-02-24T14:35:34Z</time>
      </trkpt>
      <trkpt lat="42.79565" lon="1.73945">
        <ele>1238.63</ele>
        <time>2018-02-24T14:36:00Z</time>
      </trkpt>
      <trkpt lat="42.79548" lon="1.73953">
        <ele>1235.93</ele>
        <time>2018-02-24T14:36:20Z</time>
      </trkpt>
      <trkpt lat="42.79534" lon="1.7397">
        <ele>1233.23</ele>
        <time>2018-02-24T14:36:43Z</time>
      </trkpt>
      <trkpt lat="42.79518" lon="1.73958">
        <ele>1230.64</ele>
        <time>2018-02-24T14:37:03Z</time>
      </trkpt>
      <trkpt lat="42.79518" lon="1.73932">
        <ele>1200.2</ele>
        <time>2018-02-24T14:52:07Z</time>
      </trkpt>
      <trkpt lat="42.79523" lon="1.73907">
        <ele>1198.61</ele>
        <time>2018-02-24T14:52:28Z</time>
      </trkpt>
      <trkpt lat="42.79528" lon="1.73883">
        <ele>1197.62</ele>
        <time>2018-02-24T14:52:47Z</time>
      </trkpt>
      <trkpt lat="42.79535" lon="1.7386">
        <ele>1196.87</ele>
        <time>2018-02-24T14:53:07Z</time>
      </trkpt>
      <trkpt lat="42.79534" lon="1.73835">
        <ele>1196.18</ele>
        <time>2018-02-24T14:53:33Z</time>
      </trkpt>
      <trkpt lat="42.79529" lon="1.7381">
        <ele>1195.63</ele>
        <time>2018-02-24T14:54:01Z</time>
      </trkpt>
      <trkpt lat="42.79526" lon="1.73785">
        <ele>1195.11</ele>
        <time>2018-02-24T14:54:30Z</time>
      </trkpt>
      <trkpt lat="42.79528" lon="1.7376">
        <ele>1194.72</ele>
        <time>2018-02-24T14:54:59Z</time>
      </trkpt>
      <trkpt lat="42.79537" lon="1.73738">
        <ele>1194.39</ele>
        <time>2018-02-24T14:55:30Z</time>
      </trkpt>
      <trkpt lat="42.7954" lon="1.73714">
        <ele>1193.9</ele>
        <time>2018-02-24T14:55:56Z</time>
      </trkpt>
      <trkpt lat="42.79549" lon="1.73692">
        <ele>1193.02</ele>
        <time>2018-02-24T14:56:35Z</time>
      </trkpt>
      <trkpt lat="42.79552" lon="1.73667">
        <ele>1191.87</ele>
        <time>2018-02-24T14:56:56Z</time>
      </trkpt>
      <trkpt lat="42.79551" lon="1.73641">
        <ele>1189.74</ele>
        <time>2018-02-24T14:57:19Z</time>
      </trkpt>
      <trkpt lat="42.79553" lon="1.73616">
        <ele>1184.28</ele>
        <time>2018-02-24T14:58:04Z</time>
      </trkpt>
      <trkpt lat="42.79554" lon="1.73591">
        <ele>1180.45</ele>
        <time>2018-02-24T14:58:30Z</time>
      </trkpt>
      <trkpt lat="42.79548" lon="1.73567">
        <ele>1175.63</ele>
        <time>2018-02-24T14:58:56Z</time>
      </trkpt>
      <trkpt lat="42.79534" lon="1.73551">
        <ele>1170.03</ele>
        <time>2018-02-24T14:59:22Z</time>
      </trkpt>
      <trkpt lat="42.79516" lon="1.73545">
        <ele>1155.09</ele>
        <time>2018-02-24T15:00:23Z</time>
      </trkpt>
      <trkpt lat="42.795" lon="1.73557">
        <ele>1144.03</ele>
        <time>2018-02-24T15:01:09Z</time>
      </trkpt>
      <trkpt lat="42.79482" lon="1.73558">
        <ele>1131.56</ele>
        <time>2018-02-24T15:02:02Z</time>
      </trkpt>
      <trkpt lat="42.79474" lon="1.73536">
        <ele>1127.36</ele>
        <time>2018-02-24T15:02:21Z</time>
      </trkpt>
      <trkpt lat="42.79473" lon="1.73511">
        <ele>1122.02</ele>
        <time>2018-02-24T15:02:44Z</time>
      </trkpt>
      <trkpt lat="42.79468" lon="1.73486">
        <ele>1115.09</ele>
        <time>2018-02-24T15:03:13Z</time>
      </trkpt>
      <trkpt lat="42.79461" lon="1.73463">
        <ele>1107.62</ele>
        <time>2018-02-24T15:03:39Z</time>
      </trkpt>
      <trkpt lat="42.79454" lon="1.7344">
        <ele>1103.1</ele>
        <time>2018-02-24T15:03:56Z</time>
      </trkpt>
      <trkpt lat="42.79459" lon="1.73417">
        <ele>1098.75</ele>
        <time>2018-02-24T15:04:13Z</time>
      </trkpt>
      <trkpt lat="42.79451" lon="1.73392">
        <ele>1090.12</ele>
        <time>2018-02-24T15:04:52Z</time>
      </trkpt>
      <trkpt lat="42.79432" lon="1.73396">
        <ele>1085.93</ele>
        <time>2018-02-24T15:05:12Z</time>
      </trkpt>
      <trkpt lat="42.79414" lon="1.73403">
        <ele>1082.98</ele>
        <time>2018-02-24T15:05:28Z</time>
      </trkpt>
      <trkpt lat="42.79396" lon="1.73403">
        <ele>1080.76</ele>
        <time>2018-02-24T15:05:42Z</time>
      </trkpt>
      <trkpt lat="42.79378" lon="1.73409">
        <ele>1078.67</ele>
        <time>2018-02-24T15:05:57Z</time>
      </trkpt>
      <trkpt lat="42.7936" lon="1.73409">
        <ele>1076.67</ele>
        <time>2018-02-24T15:06:13Z</time>
      </trkpt>
      <trkpt lat="42.79342" lon="1.73404">
        <ele>1074.42</ele>
        <time>2018-02-24T15:06:29Z</time>
      </trkpt>
      <trkpt lat="42.79324" lon="1.734">
        <ele>1071.74</ele>
        <time>2018-02-24T15:06:48Z</time>
      </trkpt>
      <trkpt lat="42.79305" lon="1.73404">
        <ele>1068.82</ele>
        <time>2018-02-24T15:07:09Z</time>
      </trkpt>
      <trkpt lat="42.79293" lon="1.73423">
        <ele>1065.06</ele>
        <time>2018-02-24T15:07:34Z</time>
      </trkpt>
      <trkpt lat="42.79282" lon="1.73404">
        <ele>1061.51</ele>
        <time>2018-02-24T15:07:52Z</time>
      </trkpt>
      <trkpt lat="42.79265" lon="1.73394">
        <ele>1057.41</ele>
        <time>2018-02-24T15:08:10Z</time>
      </trkpt>
      <trkpt lat="42.79247" lon="1.73389">
        <ele>1054.38</ele>
        <time>2018-02-24T15:08:25Z</time>
      </trkpt>
      <trkpt lat="42.7923" lon="1.73377">
        <ele>1051.65</ele>
        <time>2018-02-24T15:08:40Z</time>
      </trkpt>
      <trkpt lat="42.79217" lon="1.7336">
        <ele>1048.28</ele>
        <time>2018-02-24T15:09:01Z</time>
      </trkpt>
      <trkpt lat="42.79205" lon="1.73339">
        <ele>1046.24</ele>
        <time>2018-02-24T15:09:15Z</time>
      </trkpt>
      <trkpt lat="42.79198" lon="1.73314">
        <ele>1044.11</ele>
        <time>2018-02-24T15:09:32Z</time>
      </trkpt>
      <trkpt lat="42.79191" lon="1.7329">
        <ele>1041.54</ele>
        <time>2018-02-24T15:10:00Z</time>
      </trkpt>
      <trkpt lat="42.79178" lon="1.73274">
        <ele>1039.01</ele>
        <time>2018-02-24T15:10:27Z</time>
      </trkpt>
      <trkpt lat="42.7916" lon="1.73265">
        <ele>1034.05</ele>
        <time>2018-02-24T15:11:27Z</time>
      </trkpt>
      <trkpt lat="42.79145" lon="1.7325">
        <ele>1024.6</ele>
        <time>2018-02-24T15:14:19Z</time>
      </trkpt>
      <trkpt lat="42.79129" lon="1.73236">
        <ele>1021.63</ele>
        <time>2018-02-24T15:14:43Z</time>
      </trkpt>
      <trkpt lat="42.79113" lon="1.73224">
        <ele>1020.3</ele>
        <time>2018-02-24T15:14:57Z</time>
      </trkpt>
      <trkpt lat="42.79104" lon="1.73246">
        <ele>1018.29</ele>
        <time>2018-02-24T15:15:18Z</time>
      </trkpt>
      <trkpt lat="42.79098" lon="1.7327">
        <ele>1015.93</ele>
        <time>2018-02-24T15:15:39Z</time>
      </trkpt>
      <trkpt lat="42.79095" lon="1.73294">
        <ele>1013.97</ele>
        <time>2018-02-24T15:15:58Z</time>
      </trkpt>
      <trkpt lat="42.79097" lon="1.73319">
        <ele>1012.08</ele>
        <time>2018-02-24T15:16:19Z</time>
      </trkpt>
      <trkpt lat="42.7909" lon="1.73343">
        <ele>1010.45</ele>
        <time>2018-02-24T15:16:35Z</time>
      </trkpt>
      <trkpt lat="42.79074" lon="1.73356">
        <ele>1008.97</ele>
        <time>2018-02-24T15:16:50Z</time>
      </trkpt>
      <trkpt lat="42.79056" lon="1.73356">
        <ele>1007.83</ele>
        <time>2018-02-24T15:17:03Z</time>
      </trkpt>
      <trkpt lat="42.79044" lon="1.73338">
        <ele>1006.27</ele>
        <time>2018-02-24T15:17:21Z</time>
      </trkpt>
      <trkpt lat="42.79041" lon="1.73312">
        <ele>1004.18</ele>
        <time>2018-02-24T15:17:44Z</time>
      </trkpt>
      <trkpt lat="42.79028" lon="1.73295">
        <ele>1002.11</ele>
        <time>2018-02-24T15:18:02Z</time>
      </trkpt>
      <trkpt lat="42.79012" lon="1.73279">
        <ele>999.86</ele>
        <time>2018-02-24T15:18:17Z</time>
      </trkpt>
      <trkpt lat="42.78996" lon="1.73291">
        <ele>996.54</ele>
        <time>2018-02-24T15:18:37Z</time>
      </trkpt>
      <trkpt lat="42.7899" lon="1.73316">
        <ele>994.15</ele>
        <time>2018-02-24T15:18:53Z</time>
      </trkpt>
      <trkpt lat="42.78987" lon="1.7334">
        <ele>991.95</ele>
        <time>2018-02-24T15:19:09Z</time>
      </trkpt>
      <trkpt lat="42.78983" lon="1.73365">
        <ele>989.58</ele>
        <time>2018-02-24T15:19:28Z</time>
      </trkpt>
      <trkpt lat="42.78986" lon="1.7339">
        <ele>960.91</ele>
        <time>2018-02-24T15:23:57Z</time>
      </trkpt>
    </trkseg>
  </trk>
</gpx>